createdAt,value
2024-03-26T00:00:27.395Z,74.11
2024-03-26T00:01:27.399Z,74.11
2024-03-26T00:02:27.354Z,73.91
2024-03-26T00:03:27.334Z,74.53
2024-03-26T00:04:27.331Z,74.32
2024-03-26T00:05:27.315Z,74.43
2024-03-26T00:06:27.340Z,74.46
2024-03-26T00:07:27.294Z,74.32
2024-03-26T00:08:27.267Z,74.32
2024-03-26T00:09:27.253Z,74.32
2024-03-26T00:10:27.230Z,74.32
2024-03-26T00:11:27.268Z,74.32
2024-03-26T00:12:27.208Z,73.91
2024-03-26T00:13:27.177Z,74.11
2024-03-26T00:14:27.155Z,74.11
2024-03-26T00:15:27.208Z,74.67
2024-03-26T00:16:27.131Z,74.05
2024-03-26T00:17:27.152Z,74.57
2024-03-26T00:18:27.120Z,74.15
2024-03-26T00:19:27.087Z,75.09
2024-03-26T00:20:27.087Z,75.40
2024-03-26T00:21:27.058Z,74.77
2024-03-26T00:22:27.082Z,75.29
2024-03-26T00:23:27.034Z,74.98
2024-03-26T00:24:26.995Z,74.15
2024-03-26T00:25:26.982Z,74.98
2024-03-26T00:26:26.956Z,74.46
2024-03-26T00:27:27.002Z,74.46
2024-03-26T00:28:26.947Z,74.57
2024-03-26T00:29:26.946Z,74.77
2024-03-26T00:30:26.904Z,74.26
2024-03-26T00:31:26.881Z,75.09
2024-03-26T00:32:26.881Z,74.98
2024-03-26T00:33:26.862Z,75.85
2024-03-26T00:34:26.837Z,75.95
2024-03-26T00:35:26.826Z,75.95
2024-03-26T00:36:26.788Z,75.85
2024-03-26T00:37:26.788Z,75.92
2024-03-26T00:38:26.769Z,75.95
2024-03-26T00:39:26.765Z,76.02
2024-03-26T00:40:26.748Z,75.60
2024-03-26T00:41:26.717Z,75.19
2024-03-26T00:42:26.681Z,74.57
2024-03-26T00:43:26.683Z,74.98
2024-03-26T00:44:26.650Z,74.88
2024-03-26T00:45:26.649Z,74.98
2024-03-26T00:46:26.625Z,74.77
2024-03-26T00:47:26.615Z,74.67
2024-03-26T00:48:26.627Z,74.67
2024-03-26T00:49:26.582Z,74.77
2024-03-26T00:50:26.559Z,74.26
2024-03-26T00:51:26.542Z,74.88
2024-03-26T00:52:26.528Z,74.67
2024-03-26T00:53:26.515Z,74.67
2024-03-26T00:54:27.636Z,74.26
2024-03-26T00:55:27.472Z,74.36
2024-03-26T00:56:26.500Z,74.15
2024-03-26T00:57:26.438Z,74.26
2024-03-26T00:58:26.439Z,74.22
2024-03-26T00:59:26.415Z,73.84
2024-03-26T01:00:26.380Z,73.74
2024-03-26T01:01:26.445Z,73.91
2024-03-26T01:02:26.432Z,73.28
2024-03-26T01:03:26.429Z,73.53
2024-03-26T01:04:26.397Z,73.70
2024-03-26T01:05:26.328Z,73.91
2024-03-26T01:06:26.308Z,73.63
2024-03-26T01:07:26.277Z,73.63
2024-03-26T01:08:26.271Z,73.84
2024-03-26T01:09:26.283Z,73.70
2024-03-26T01:10:26.224Z,74.15
2024-03-26T01:11:26.215Z,73.94
2024-03-26T01:12:26.193Z,74.01
2024-03-26T01:13:26.176Z,74.43
2024-03-26T01:14:26.164Z,74.26
2024-03-26T01:15:26.162Z,73.94
2024-03-26T01:16:26.120Z,73.94
2024-03-26T01:17:26.120Z,74.32
2024-03-26T01:18:26.109Z,74.53
2024-03-26T01:19:26.082Z,74.46
2024-03-26T01:20:26.074Z,74.15
2024-03-26T01:21:26.042Z,74.71
2024-03-26T01:22:26.033Z,74.98
2024-03-26T01:23:26.029Z,74.77
2024-03-26T01:24:26.009Z,74.67
2024-03-26T01:25:26.021Z,74.88
2024-03-26T01:26:25.976Z,75.09
2024-03-26T01:27:25.944Z,75.09
2024-03-26T01:28:25.927Z,74.98
2024-03-26T01:29:25.914Z,74.67
2024-03-26T01:30:25.948Z,74.67
2024-03-26T01:31:25.913Z,74.36
2024-03-26T01:32:25.884Z,74.77
2024-03-26T01:33:25.855Z,74.67
2024-03-26T01:34:25.849Z,74.57
2024-03-26T01:35:25.820Z,74.98
2024-03-26T01:36:25.802Z,74.88
2024-03-26T01:37:25.794Z,75.09
2024-03-26T01:38:25.831Z,75.09
2024-03-26T01:39:25.772Z,75.09
2024-03-26T01:40:25.719Z,74.88
2024-03-26T01:41:25.831Z,75.09
2024-03-26T01:42:25.698Z,75.09
2024-03-26T01:43:25.667Z,75.02
2024-03-26T01:44:25.653Z,75.71
2024-03-26T01:45:25.630Z,75.19
2024-03-26T01:46:25.684Z,75.19
2024-03-26T01:47:25.644Z,75.54
2024-03-26T01:48:25.585Z,75.95
2024-03-26T01:49:25.582Z,75.74
2024-03-26T01:50:25.538Z,75.74
2024-03-26T01:51:25.526Z,75.74
2024-03-26T01:52:25.525Z,75.95
2024-03-26T01:53:25.506Z,75.95
2024-03-26T01:54:25.478Z,75.95
2024-03-26T01:55:25.486Z,75.54
2024-03-26T01:56:25.457Z,75.64
2024-03-26T01:57:25.458Z,75.23
2024-03-26T01:58:25.421Z,75.12
2024-03-26T01:59:25.392Z,75.43
2024-03-26T02:00:25.382Z,75.33
2024-03-26T02:01:25.364Z,75.64
2024-03-26T02:02:25.383Z,75.54
2024-03-26T02:03:25.344Z,75.74
2024-03-26T02:04:25.310Z,75.74
2024-03-26T02:05:25.315Z,75.74
2024-03-26T02:06:25.291Z,75.95
2024-03-26T02:07:25.257Z,76.16
2024-03-26T02:08:25.255Z,75.64
2024-03-26T02:09:25.234Z,75.33
2024-03-26T02:10:25.206Z,75.74
2024-03-26T02:11:25.185Z,75.33
2024-03-26T02:12:25.188Z,75.23
2024-03-26T02:13:25.227Z,75.64
2024-03-26T02:14:25.131Z,75.23
2024-03-26T02:15:25.123Z,75.43
2024-03-26T02:16:25.103Z,75.43
2024-03-26T02:17:25.106Z,75.74
2024-03-26T02:18:25.126Z,75.43
2024-03-26T02:19:25.056Z,75.74
2024-03-26T02:20:25.040Z,75.64
2024-03-26T02:21:25.020Z,75.43
2024-03-26T02:22:25.015Z,75.64
2024-03-26T02:23:25.026Z,75.43
2024-03-26T02:24:24.966Z,76.37
2024-03-26T02:25:24.963Z,75.36
2024-03-26T02:26:24.944Z,76.37
2024-03-26T02:27:24.913Z,76.16
2024-03-26T02:28:24.901Z,76.06
2024-03-26T02:29:24.896Z,76.26
2024-03-26T02:30:24.866Z,76.06
2024-03-26T02:31:24.860Z,76.19
2024-03-26T02:32:24.856Z,76.26
2024-03-26T02:33:24.815Z,76.40
2024-03-26T02:34:24.820Z,75.95
2024-03-26T02:35:24.794Z,76.40
2024-03-26T02:36:24.766Z,76.06
2024-03-26T02:37:24.757Z,76.78
2024-03-26T02:38:24.730Z,76.57
2024-03-26T02:39:24.759Z,76.61
2024-03-26T02:40:24.711Z,76.40
2024-03-26T02:41:24.691Z,76.81
2024-03-26T02:42:24.667Z,77.12
2024-03-26T02:43:24.660Z,77.33
2024-03-26T02:44:24.662Z,77.23
2024-03-26T02:45:24.619Z,77.33
2024-03-26T02:46:24.600Z,77.54
2024-03-26T02:47:24.605Z,77.12
2024-03-26T02:48:24.558Z,78.47
2024-03-26T02:49:24.545Z,77.44
2024-03-26T02:50:24.545Z,77.33
2024-03-26T02:51:24.506Z,77.54
2024-03-26T02:52:24.505Z,77.33
2024-03-26T02:53:24.489Z,77.23
2024-03-26T02:54:24.472Z,77.75
2024-03-26T02:55:24.472Z,78.27
2024-03-26T02:56:24.433Z,78.06
2024-03-26T02:57:24.414Z,78.06
2024-03-26T02:58:24.412Z,78.06
2024-03-26T02:59:24.395Z,77.33
2024-03-26T03:00:24.406Z,78.16
2024-03-26T03:01:24.360Z,77.75
2024-03-26T03:02:24.338Z,77.51
2024-03-26T03:03:24.303Z,77.33
2024-03-26T03:04:25.326Z,77.02
2024-03-26T03:05:24.580Z,76.81
2024-03-26T03:06:24.258Z,77.02
2024-03-26T03:07:24.249Z,76.61
2024-03-26T03:08:24.242Z,76.61
2024-03-26T03:09:24.222Z,76.81
2024-03-26T03:10:24.318Z,76.78
2024-03-26T03:11:24.174Z,76.50
2024-03-26T03:12:24.180Z,76.26
2024-03-26T03:13:24.148Z,76.37
2024-03-26T03:14:24.125Z,76.37
2024-03-26T03:15:24.108Z,76.26
2024-03-26T03:16:24.104Z,76.37
2024-03-26T03:17:24.075Z,76.06
2024-03-26T03:18:24.072Z,76.06
2024-03-26T03:19:24.052Z,75.54
2024-03-26T03:20:24.024Z,76.26
2024-03-26T03:21:24.051Z,76.16
2024-03-26T03:22:23.994Z,75.85
2024-03-26T03:23:23.988Z,75.50
2024-03-26T03:24:23.963Z,75.54
2024-03-26T03:25:23.949Z,75.54
2024-03-26T03:26:25.556Z,75.74
2024-03-26T03:27:23.914Z,76.16
2024-03-26T03:28:23.902Z,75.71
2024-03-26T03:29:23.877Z,75.74
2024-03-26T03:30:23.859Z,75.64
2024-03-26T03:31:23.841Z,74.46
2024-03-26T03:32:23.851Z,74.67
2024-03-26T03:33:23.811Z,73.94
2024-03-26T03:34:23.780Z,74.57
2024-03-26T03:35:23.778Z,74.36
2024-03-26T03:36:23.779Z,74.67
2024-03-26T03:37:23.771Z,74.36
2024-03-26T03:38:23.729Z,74.36
2024-03-26T03:39:23.712Z,74.36
2024-03-26T03:40:23.696Z,75.09
2024-03-26T03:41:23.685Z,74.67
2024-03-26T03:42:23.711Z,74.15
2024-03-26T03:43:23.634Z,74.26
2024-03-26T03:44:23.627Z,74.15
2024-03-26T03:45:23.638Z,73.63
2024-03-26T03:46:23.598Z,73.49
2024-03-26T03:47:23.651Z,73.70
2024-03-26T03:48:23.557Z,73.39
2024-03-26T03:49:23.535Z,73.60
2024-03-26T03:50:23.530Z,73.39
2024-03-26T03:51:23.511Z,72.77
2024-03-26T03:52:23.515Z,72.98
2024-03-26T03:53:23.495Z,72.98
2024-03-26T03:54:23.462Z,72.98
2024-03-26T03:55:23.465Z,72.67
2024-03-26T03:56:23.428Z,72.15
2024-03-26T03:57:23.406Z,73.15
2024-03-26T03:58:23.409Z,73.18
2024-03-26T03:59:23.378Z,73.28
2024-03-26T04:00:23.360Z,72.77
2024-03-26T04:01:23.332Z,73.18
2024-03-26T04:02:23.320Z,72.77
2024-03-26T04:03:23.344Z,73.28
2024-03-26T04:04:23.281Z,73.28
2024-03-26T04:05:23.271Z,72.67
2024-03-26T04:06:23.250Z,73.28
2024-03-26T04:07:23.233Z,72.88
2024-03-26T04:08:23.278Z,72.56
2024-03-26T04:09:23.219Z,72.77
2024-03-26T04:10:23.194Z,72.88
2024-03-26T04:11:23.175Z,73.18
2024-03-26T04:12:23.148Z,73.28
2024-03-26T04:13:23.225Z,73.08
2024-03-26T04:14:26.966Z,72.98
2024-03-26T04:15:23.118Z,73.80
2024-03-26T04:16:23.087Z,72.60
2024-03-26T04:17:23.072Z,72.88
2024-03-26T04:18:23.058Z,72.88
2024-03-26T04:19:23.083Z,73.18
2024-03-26T04:20:23.021Z,73.39
2024-03-26T04:21:23.013Z,73.60
2024-03-26T04:22:22.994Z,72.98
2024-03-26T04:23:22.979Z,72.15
2024-03-26T04:24:22.999Z,73.28
2024-03-26T04:25:22.941Z,73.08
2024-03-26T04:26:22.916Z,72.77
2024-03-26T04:27:22.909Z,72.77
2024-03-26T04:28:22.901Z,72.77
2024-03-26T04:29:22.874Z,73.28
2024-03-26T04:30:22.904Z,72.46
2024-03-26T04:31:22.840Z,73.18
2024-03-26T04:32:22.831Z,72.77
2024-03-26T04:33:22.803Z,72.67
2024-03-26T04:34:22.789Z,72.88
2024-03-26T04:35:22.794Z,72.36
2024-03-26T04:36:22.761Z,72.56
2024-03-26T04:37:25.744Z,72.36
2024-03-26T04:38:22.727Z,72.25
2024-03-26T04:39:22.695Z,72.32
2024-03-26T04:40:22.737Z,72.63
2024-03-26T04:41:22.678Z,72.15
2024-03-26T04:42:22.653Z,71.73
2024-03-26T04:43:22.631Z,72.01
2024-03-26T04:44:22.621Z,71.63
2024-03-26T04:45:22.698Z,71.80
2024-03-26T04:46:22.594Z,71.70
2024-03-26T04:47:22.581Z,71.73
2024-03-26T04:48:22.550Z,71.91
2024-03-26T04:49:22.526Z,71.49
2024-03-26T04:50:22.521Z,71.28
2024-03-26T04:51:22.628Z,71.70
2024-03-26T04:52:22.477Z,71.39
2024-03-26T04:53:22.455Z,70.87
2024-03-26T04:54:22.451Z,71.08
2024-03-26T04:55:23.430Z,71.08
2024-03-26T04:56:22.421Z,70.97
2024-03-26T04:57:22.442Z,70.76
2024-03-26T04:58:22.398Z,70.97
2024-03-26T04:59:22.361Z,70.67
2024-03-26T05:00:22.343Z,70.87
2024-03-26T05:01:22.343Z,71.28
2024-03-26T05:02:22.304Z,71.08
2024-03-26T05:03:22.288Z,71.49
2024-03-26T05:04:22.303Z,71.18
2024-03-26T05:05:22.272Z,71.59
2024-03-26T05:06:22.288Z,71.70
2024-03-26T05:07:22.236Z,71.80
2024-03-26T05:08:22.208Z,72.11
2024-03-26T05:09:22.191Z,72.32
2024-03-26T05:10:22.181Z,72.67
2024-03-26T05:11:22.189Z,72.36
2024-03-26T05:12:22.176Z,72.56
2024-03-26T05:13:22.128Z,72.15
2024-03-26T05:14:22.108Z,72.42
2024-03-26T05:15:22.093Z,72.32
2024-03-26T05:16:22.086Z,72.11
2024-03-26T05:17:22.067Z,72.25
2024-03-26T05:18:22.061Z,72.77
2024-03-26T05:19:22.043Z,72.46
2024-03-26T05:20:22.031Z,72.67
2024-03-26T05:21:21.990Z,72.98
2024-03-26T05:22:22.000Z,72.70
2024-03-26T05:23:21.952Z,72.67
2024-03-26T05:24:21.944Z,72.70
2024-03-26T05:25:21.950Z,73.08
2024-03-26T05:26:21.915Z,73.01
2024-03-26T05:27:21.940Z,73.18
2024-03-26T05:28:21.880Z,73.01
2024-03-26T05:29:21.854Z,73.18
2024-03-26T05:30:21.859Z,73.60
2024-03-26T05:31:21.836Z,73.39
2024-03-26T05:32:21.818Z,73.18
2024-03-26T05:33:21.833Z,73.11
2024-03-26T05:34:25.145Z,72.91
2024-03-26T05:35:22.770Z,72.98
2024-03-26T05:36:21.762Z,73.32
2024-03-26T05:37:21.727Z,73.08
2024-03-26T05:38:21.754Z,73.70
2024-03-26T05:39:21.691Z,73.43
2024-03-26T05:40:21.694Z,73.18
2024-03-26T05:41:21.664Z,73.28
2024-03-26T05:42:21.646Z,72.88
2024-03-26T05:43:21.640Z,72.88
2024-03-26T05:44:55.067Z,72.63
2024-03-26T05:45:21.596Z,72.88
2024-03-26T05:46:21.583Z,72.77
2024-03-26T05:47:21.567Z,72.77
2024-03-26T05:48:21.569Z,72.42
2024-03-26T05:49:21.550Z,72.53
2024-03-26T05:50:21.528Z,72.42
2024-03-26T05:51:21.493Z,72.42
2024-03-26T05:52:21.500Z,72.01
2024-03-26T05:53:21.499Z,71.77
2024-03-26T05:54:21.495Z,70.73
2024-03-26T05:55:21.440Z,71.15
2024-03-26T05:56:21.432Z,70.84
2024-03-26T05:57:21.439Z,71.15
2024-03-26T05:58:21.410Z,70.63
2024-03-26T05:59:21.394Z,70.84
2024-03-26T06:00:21.392Z,70.50
2024-03-26T06:01:21.369Z,70.50
2024-03-26T06:02:21.327Z,69.77
2024-03-26T06:03:21.306Z,70.39
2024-03-26T06:04:21.295Z,70.18
2024-03-26T06:05:21.301Z,69.95
2024-03-26T06:06:21.254Z,69.74
2024-03-26T06:07:21.246Z,69.22
2024-03-26T06:08:21.275Z,69.53
2024-03-26T06:09:21.225Z,69.32
2024-03-26T06:10:21.205Z,69.12
2024-03-26T06:11:21.194Z,69.84
2024-03-26T06:12:21.167Z,69.19
2024-03-26T06:13:21.187Z,69.50
2024-03-26T06:14:21.130Z,68.88
2024-03-26T06:15:21.170Z,69.29
2024-03-26T06:16:21.097Z,68.77
2024-03-26T06:17:21.074Z,68.23
2024-03-26T06:18:23.717Z,68.64
2024-03-26T06:19:21.031Z,67.82
2024-03-26T06:20:21.059Z,68.51
2024-03-26T06:21:21.017Z,67.27
2024-03-26T06:22:21.012Z,67.16
2024-03-26T06:23:21.001Z,66.93
2024-03-26T06:24:20.987Z,67.51
2024-03-26T06:25:20.947Z,66.66
2024-03-26T06:26:20.956Z,65.11
2024-03-26T06:27:20.924Z,65.83
2024-03-26T06:28:20.891Z,64.93
2024-03-26T06:29:20.883Z,64.59
2024-03-26T06:30:20.863Z,64.93
2024-03-26T06:31:20.872Z,65.34
2024-03-26T06:32:20.828Z,65.03
2024-03-26T06:33:22.909Z,65.03
2024-03-26T06:34:20.803Z,64.39
2024-03-26T06:35:20.769Z,64.25
2024-03-26T06:36:20.775Z,64.07
2024-03-26T06:37:20.757Z,64.49
2024-03-26T06:38:20.732Z,64.67
2024-03-26T06:39:20.724Z,64.02
2024-03-26T06:40:20.705Z,62.99
2024-03-26T06:41:20.776Z,62.65
2024-03-26T06:42:20.661Z,62.75
2024-03-26T06:43:20.663Z,62.75
2024-03-26T06:44:20.634Z,62.03
2024-03-26T06:45:20.603Z,62.44
2024-03-26T06:46:23.933Z,62.75
2024-03-26T06:47:21.578Z,62.52
2024-03-26T06:48:20.564Z,62.00
2024-03-26T06:49:20.560Z,62.62
2024-03-26T06:50:20.537Z,62.41
2024-03-26T06:51:20.542Z,62.75
2024-03-26T06:52:20.519Z,62.54
2024-03-26T06:53:20.479Z,62.13
2024-03-26T06:54:20.459Z,62.65
2024-03-26T06:55:20.434Z,62.72
2024-03-26T06:56:20.436Z,62.52
2024-03-26T06:57:20.450Z,62.66
2024-03-26T06:58:20.399Z,60.37
2024-03-26T06:59:20.399Z,59.31
2024-03-26T07:00:20.376Z,58.39
2024-03-26T07:01:20.357Z,60.17
2024-03-26T07:02:20.654Z,59.93
2024-03-26T07:03:20.326Z,59.63
2024-03-26T07:04:20.338Z,58.50
2024-03-26T07:05:20.320Z,58.98
2024-03-26T07:06:20.287Z,58.54
2024-03-26T07:07:20.268Z,57.67
2024-03-26T07:08:20.262Z,56.56
2024-03-26T07:09:20.223Z,54.51
2024-03-26T07:10:20.204Z,54.82
2024-03-26T07:11:20.176Z,54.90
2024-03-26T07:12:20.196Z,53.85
2024-03-26T07:13:20.167Z,54.23
2024-03-26T07:14:20.152Z,53.11
2024-03-26T07:15:20.127Z,52.47
2024-03-26T07:16:20.103Z,52.67
2024-03-26T07:17:20.081Z,52.19
2024-03-26T07:18:20.098Z,54.64
2024-03-26T07:19:20.043Z,54.08
2024-03-26T07:20:20.030Z,54.41
2024-03-26T07:21:20.006Z,54.66
2024-03-26T07:22:19.987Z,55.90
2024-03-26T07:23:20.007Z,55.49
2024-03-26T07:24:20.000Z,55.92
2024-03-26T07:25:19.992Z,56.23
2024-03-26T07:26:19.920Z,56.85
2024-03-26T07:27:19.921Z,56.62
2024-03-26T07:28:20.192Z,54.53
2024-03-26T07:29:19.889Z,54.72
2024-03-26T07:30:19.861Z,54.25
2024-03-26T07:31:19.852Z,52.49
2024-03-26T07:32:19.828Z,52.16
2024-03-26T07:33:20.049Z,52.26
2024-03-26T07:34:19.834Z,52.57
2024-03-26T07:35:19.792Z,52.03
2024-03-26T07:36:19.877Z,51.86
2024-03-26T07:37:19.782Z,51.81
2024-03-26T07:38:19.742Z,50.89
2024-03-26T07:39:19.757Z,51.62
2024-03-26T07:40:19.708Z,51.83
2024-03-26T07:41:19.711Z,51.65
2024-03-26T07:42:19.720Z,52.39
2024-03-26T07:43:23.883Z,52.67
2024-03-26T07:44:20.741Z,51.98
2024-03-26T07:45:19.642Z,51.37
2024-03-26T07:46:19.623Z,51.27
2024-03-26T07:47:19.686Z,50.56
2024-03-26T07:48:21.645Z,50.25
2024-03-26T07:49:19.577Z,50.99
2024-03-26T07:50:19.665Z,51.95
2024-03-26T07:51:20.377Z,52.31
2024-03-26T07:52:20.564Z,53.46
2024-03-26T07:53:19.517Z,52.92
2024-03-26T07:54:19.507Z,52.49
2024-03-26T07:55:19.482Z,52.51
2024-03-26T07:56:19.452Z,52.62
2024-03-26T07:57:19.444Z,52.51
2024-03-26T07:58:19.438Z,52.83
2024-03-26T07:59:19.472Z,53.03
2024-03-26T08:00:19.576Z,53.56
2024-03-26T08:01:19.457Z,54.41
2024-03-26T08:02:19.473Z,54.74
2024-03-26T08:03:19.358Z,55.28
2024-03-26T08:04:19.339Z,55.69
2024-03-26T08:05:19.326Z,55.36
2024-03-26T08:06:19.354Z,55.85
2024-03-26T08:07:19.318Z,54.72
2024-03-26T08:08:19.273Z,54.51
2024-03-26T08:09:19.314Z,54.49
2024-03-26T08:10:19.303Z,54.74
2024-03-26T08:11:19.230Z,53.88
2024-03-26T08:12:19.194Z,53.06
2024-03-26T08:13:19.194Z,52.47
2024-03-26T08:14:19.174Z,53.39
2024-03-26T08:15:19.203Z,52.85
2024-03-26T08:16:19.117Z,53.59
2024-03-26T08:17:19.204Z,52.87
2024-03-26T08:18:19.136Z,53.80
2024-03-26T08:19:19.134Z,54.31
2024-03-26T08:20:19.089Z,54.21
2024-03-26T08:21:19.035Z,55.18
2024-03-26T08:22:19.133Z,56.41
2024-03-26T08:23:20.005Z,56.51
2024-03-26T08:24:18.988Z,54.64
2024-03-26T08:25:19.044Z,56.23
2024-03-26T08:26:18.967Z,56.23
2024-03-26T08:27:18.947Z,56.46
2024-03-26T08:28:19.015Z,57.79
2024-03-26T08:29:18.899Z,57.79
2024-03-26T08:30:18.914Z,57.10
2024-03-26T08:31:18.891Z,57.79
2024-03-26T08:32:18.963Z,56.84
2024-03-26T08:33:18.914Z,55.94
2024-03-26T08:34:18.847Z,56.23
2024-03-26T08:35:20.535Z,57.76
2024-03-26T08:36:19.867Z,59.09
2024-03-26T08:37:18.792Z,57.46
2024-03-26T08:38:18.750Z,57.15
2024-03-26T08:39:18.755Z,57.18
2024-03-26T08:40:18.991Z,58.81
2024-03-26T08:41:18.773Z,57.38
2024-03-26T08:42:18.701Z,58.64
2024-03-26T08:43:18.677Z,59.48
2024-03-26T08:44:18.671Z,60.44
2024-03-26T08:45:18.666Z,61.08
2024-03-26T08:46:18.640Z,60.39
2024-03-26T08:47:18.648Z,61.42
2024-03-26T08:48:18.599Z,61.76
2024-03-26T08:49:18.564Z,61.72
2024-03-26T08:50:18.559Z,61.29
2024-03-26T08:51:18.589Z,60.49
2024-03-26T08:52:18.518Z,62.06
2024-03-26T08:53:18.527Z,61.55
2024-03-26T08:54:18.522Z,61.55
2024-03-26T08:55:18.502Z,61.68
2024-03-26T08:56:25.054Z,62.68
2024-03-26T08:57:20.590Z,62.06
2024-03-26T08:58:22.597Z,61.42
2024-03-26T08:59:20.415Z,61.08
2024-03-26T09:00:18.390Z,60.08
2024-03-26T09:01:18.404Z,60.63
2024-03-26T09:02:18.377Z,60.80
2024-03-26T09:03:18.334Z,60.67
2024-03-26T09:04:18.463Z,60.47
2024-03-26T09:05:18.313Z,60.26
2024-03-26T09:06:18.318Z,59.52
2024-03-26T09:07:18.310Z,59.82
2024-03-26T09:08:18.266Z,59.82
2024-03-26T09:09:18.236Z,59.69
2024-03-26T09:10:18.227Z,60.03
2024-03-26T09:11:18.404Z,60.16
2024-03-26T09:12:18.220Z,60.36
2024-03-26T09:13:18.203Z,60.47
2024-03-26T09:14:18.206Z,60.77
2024-03-26T09:15:18.142Z,60.26
2024-03-26T09:16:18.146Z,59.75
2024-03-26T09:17:18.160Z,60.77
2024-03-26T09:18:18.101Z,60.26
2024-03-26T09:19:18.172Z,60.95
2024-03-26T09:20:18.083Z,59.85
2024-03-26T09:21:18.125Z,59.67
2024-03-26T09:22:18.038Z,59.77
2024-03-26T09:23:18.072Z,60.08
2024-03-26T09:24:18.004Z,61.08
2024-03-26T09:25:18.004Z,61.16
2024-03-26T09:26:17.955Z,60.39
2024-03-26T09:27:18.952Z,61.00
2024-03-26T09:28:17.940Z,61.42
2024-03-26T09:29:17.929Z,59.98
2024-03-26T09:30:17.914Z,60.60
2024-03-26T09:31:17.893Z,60.91
2024-03-26T09:32:17.889Z,61.83
2024-03-26T09:33:18.191Z,63.17
2024-03-26T09:34:17.869Z,61.62
2024-03-26T09:35:17.818Z,61.32
2024-03-26T09:36:17.794Z,61.42
2024-03-26T09:37:17.773Z,61.76
2024-03-26T09:38:18.691Z,60.39
2024-03-26T09:39:17.742Z,60.91
2024-03-26T09:40:17.738Z,61.62
2024-03-26T09:41:17.727Z,60.70
2024-03-26T09:42:17.695Z,61.62
2024-03-26T09:43:19.880Z,61.44
2024-03-26T09:44:19.143Z,61.44
2024-03-26T09:45:17.688Z,61.88
2024-03-26T09:46:17.629Z,62.09
2024-03-26T09:47:17.613Z,62.09
2024-03-26T09:48:17.649Z,61.99
2024-03-26T09:49:17.601Z,62.81
2024-03-26T09:50:17.596Z,62.09
2024-03-26T09:51:17.562Z,62.27
2024-03-26T09:52:17.537Z,62.45
2024-03-26T09:53:17.530Z,61.83
2024-03-26T09:54:17.511Z,61.52
2024-03-26T09:55:17.668Z,61.52
2024-03-26T09:56:17.446Z,61.18
2024-03-26T09:57:18.448Z,61.67
2024-03-26T09:58:17.412Z,61.98
2024-03-26T09:59:17.443Z,61.85
2024-03-26T10:00:17.534Z,62.56
2024-03-26T10:01:17.375Z,61.20
2024-03-26T10:02:17.359Z,59.89
2024-03-26T10:03:17.353Z,59.25
2024-03-26T10:04:17.383Z,58.67
2024-03-26T10:05:17.581Z,59.62
2024-03-26T10:06:17.299Z,58.67
2024-03-26T10:07:17.272Z,59.28
2024-03-26T10:08:17.247Z,59.18
2024-03-26T10:09:17.239Z,59.48
2024-03-26T10:10:17.310Z,58.36
2024-03-26T10:11:17.218Z,59.31
2024-03-26T10:12:17.306Z,58.80
2024-03-26T10:13:17.175Z,59.52
2024-03-26T10:14:17.206Z,60.47
2024-03-26T10:15:17.161Z,59.82
2024-03-26T10:16:17.181Z,59.54
2024-03-26T10:17:17.102Z,60.26
2024-03-26T10:18:17.103Z,60.60
2024-03-26T10:19:17.078Z,60.16
2024-03-26T10:20:17.073Z,60.49
2024-03-26T10:21:17.063Z,60.39
2024-03-26T10:22:17.080Z,61.44
2024-03-26T10:23:17.011Z,61.72
2024-03-26T10:24:16.988Z,62.68
2024-03-26T10:25:17.015Z,62.24
2024-03-26T10:26:17.059Z,62.24
2024-03-26T10:27:16.983Z,61.21
2024-03-26T10:28:16.991Z,61.93
2024-03-26T10:29:16.895Z,61.62
2024-03-26T10:30:16.896Z,62.45
2024-03-26T10:31:16.867Z,62.21
2024-03-26T10:32:16.944Z,61.62
2024-03-26T10:33:16.842Z,61.62
2024-03-26T10:34:16.843Z,61.83
2024-03-26T10:35:16.826Z,61.90
2024-03-26T10:36:16.850Z,62.62
2024-03-26T10:37:16.849Z,62.31
2024-03-26T10:38:17.435Z,62.39
2024-03-26T10:39:16.742Z,62.49
2024-03-26T10:40:16.718Z,62.08
2024-03-26T10:41:16.719Z,61.08
2024-03-26T10:42:16.735Z,62.01
2024-03-26T10:43:16.673Z,62.39
2024-03-26T10:44:16.648Z,62.15
2024-03-26T10:45:27.598Z,61.64
2024-03-26T10:46:18.617Z,61.44
2024-03-26T10:47:16.644Z,62.26
2024-03-26T10:48:16.600Z,62.56
2024-03-26T10:49:16.588Z,61.13
2024-03-26T10:50:16.591Z,61.44
2024-03-26T10:51:16.522Z,60.72
2024-03-26T10:52:16.522Z,60.31
2024-03-26T10:53:19.027Z,60.17
2024-03-26T10:54:16.489Z,59.59
2024-03-26T10:55:16.463Z,59.69
2024-03-26T10:56:16.451Z,60.61
2024-03-26T10:57:16.438Z,60.61
2024-03-26T10:58:16.431Z,60.58
2024-03-26T10:59:16.426Z,60.07
2024-03-26T11:00:16.407Z,59.46
2024-03-26T11:01:16.390Z,59.89
2024-03-26T11:02:16.363Z,59.97
2024-03-26T11:03:16.353Z,60.35
2024-03-26T11:04:16.344Z,60.58
2024-03-26T11:05:16.305Z,59.77
2024-03-26T11:06:16.317Z,60.07
2024-03-26T11:07:16.280Z,59.66
2024-03-26T11:08:16.324Z,60.07
2024-03-26T11:09:16.886Z,60.21
2024-03-26T11:10:16.216Z,59.97
2024-03-26T11:11:16.240Z,60.17
2024-03-26T11:12:16.186Z,59.69
2024-03-26T11:13:16.170Z,59.77
2024-03-26T11:14:16.170Z,59.97
2024-03-26T11:15:16.155Z,59.77
2024-03-26T11:16:16.133Z,59.97
2024-03-26T11:17:16.122Z,60.03
2024-03-26T11:18:16.097Z,60.21
2024-03-26T11:19:16.178Z,59.80
2024-03-26T11:20:16.067Z,59.82
2024-03-26T11:21:16.043Z,59.48
2024-03-26T11:22:16.047Z,59.59
2024-03-26T11:23:16.008Z,60.17
2024-03-26T11:24:16.084Z,60.69
2024-03-26T11:25:15.970Z,60.35
2024-03-26T11:26:15.960Z,59.74
2024-03-26T11:27:15.934Z,59.12
2024-03-26T11:28:15.936Z,59.12
2024-03-26T11:29:15.938Z,59.77
2024-03-26T11:30:15.922Z,59.69
2024-03-26T11:31:15.866Z,60.17
2024-03-26T11:32:18.896Z,59.56
2024-03-26T11:33:16.877Z,60.10
2024-03-26T11:34:15.897Z,60.28
2024-03-26T11:35:15.872Z,59.36
2024-03-26T11:36:15.794Z,59.77
2024-03-26T11:37:15.806Z,59.56
2024-03-26T11:38:15.759Z,60.07
2024-03-26T11:39:15.745Z,59.77
2024-03-26T11:40:15.786Z,60.58
2024-03-26T11:41:15.728Z,62.10
2024-03-26T11:42:15.748Z,61.58
2024-03-26T11:43:15.679Z,59.50
2024-03-26T11:44:15.664Z,59.50
2024-03-26T11:45:15.673Z,58.17
2024-03-26T11:46:47.598Z,59.00
2024-03-26T11:47:15.689Z,59.50
2024-03-26T11:48:15.614Z,59.38
2024-03-26T11:49:15.578Z,59.27
2024-03-26T11:50:15.608Z,58.66
2024-03-26T11:51:15.632Z,58.48
2024-03-26T11:52:15.584Z,59.71
2024-03-26T11:53:15.533Z,58.38
2024-03-26T11:54:15.574Z,58.76
2024-03-26T11:55:15.500Z,59.38
2024-03-26T11:56:15.517Z,58.56
2024-03-26T11:57:15.438Z,59.58
2024-03-26T11:58:15.579Z,60.19
2024-03-26T11:59:15.452Z,58.94
2024-03-26T12:00:15.446Z,58.53
2024-03-26T12:01:15.410Z,58.33
2024-03-26T12:02:15.406Z,58.02
2024-03-26T12:03:15.377Z,58.63
2024-03-26T12:04:15.384Z,58.94
2024-03-26T12:05:15.377Z,58.04
2024-03-26T12:06:15.285Z,58.12
2024-03-26T12:07:15.315Z,58.33
2024-03-26T12:08:15.462Z,57.92
2024-03-26T12:09:15.332Z,57.71
2024-03-26T12:10:15.230Z,58.40
2024-03-26T12:11:15.318Z,58.02
2024-03-26T12:12:15.295Z,58.12
2024-03-26T12:13:15.225Z,58.20
2024-03-26T12:14:16.279Z,58.09
2024-03-26T12:15:15.155Z,57.17
2024-03-26T12:16:17.552Z,57.07
2024-03-26T12:17:15.287Z,57.25
2024-03-26T12:18:15.202Z,58.68
2024-03-26T12:19:15.105Z,56.30
2024-03-26T12:20:15.104Z,57.22
2024-03-26T12:21:15.104Z,58.17
2024-03-26T12:22:15.060Z,58.14
2024-03-26T12:23:15.073Z,56.30
2024-03-26T12:24:15.046Z,55.97
2024-03-26T12:25:15.010Z,56.89
2024-03-26T12:26:15.031Z,56.17
2024-03-26T12:27:15.101Z,56.89
2024-03-26T12:28:15.024Z,56.45
2024-03-26T12:29:14.923Z,54.51
2024-03-26T12:30:14.919Z,54.39
2024-03-26T12:31:14.932Z,55.20
2024-03-26T12:32:14.928Z,55.61
2024-03-26T12:33:14.957Z,55.82
2024-03-26T12:34:14.832Z,56.23
2024-03-26T12:35:14.827Z,55.58
2024-03-26T12:36:14.851Z,56.40
2024-03-26T12:37:14.849Z,54.26
2024-03-26T12:38:14.821Z,54.36
2024-03-26T12:39:14.748Z,54.33
2024-03-26T12:40:14.731Z,54.54
2024-03-26T12:41:14.716Z,56.37
2024-03-26T12:42:14.693Z,55.87
2024-03-26T12:43:14.685Z,56.07
2024-03-26T12:44:14.687Z,56.37
2024-03-26T12:45:14.654Z,56.48
2024-03-26T12:46:14.643Z,55.46
2024-03-26T12:47:14.621Z,54.24
2024-03-26T12:48:14.651Z,53.62
2024-03-26T12:49:14.590Z,54.39
2024-03-26T12:50:14.577Z,55.82
2024-03-26T12:51:14.553Z,56.73
2024-03-26T12:52:14.550Z,56.02